This is the latest recevied weather packets stored in our database for station/object W2SRH. If no packets are shown the sender has not sent any weather packets the latest 10 day(s).
| Time | Temp. | Humidity | Pressure | Rain* | Wind** | Luminosity | Snow |
|---|---|---|---|---|---|---|---|
| 1778006945 | 28.33° C | 30% | 1000.6 hPa | 0 mm | 1.79 m/s, 240° | - | - |
| 1778006345 | 28.33° C | 30% | 1000.8 hPa | 0 mm | 1.34 m/s, 214° | - | - |
| 1778005745 | 27.78° C | 32% | 1001 hPa | 0 mm | 1.34 m/s, 257° | - | - |
| 1778005147 | 27.78° C | 32% | 1001.1 hPa | 0 mm | 0.89 m/s, 260° | - | - |
| 1778004549 | 27.78° C | 32% | 1001.2 hPa | 0 mm | 3.13 m/s, 257° | - | - |
| 1778003945 | 27.22° C | 33% | 1001.4 hPa | 0 mm | 0.89 m/s, 90° | - | - |
| 1778003345 | 27.78° C | 33% | 1001.4 hPa | 0 mm | 1.34 m/s, 230° | - | - |
| 1778002745 | 27.78° C | 33% | 1001.5 hPa | 0 mm | 1.34 m/s, 273° | - | - |
| 1778002145 | 27.78° C | 35% | 1001.7 hPa | 0 mm | 0.45 m/s, 261° | - | - |
| 1778001545 | 27.22° C | 35% | 1001.6 hPa | 0 mm | 1.34 m/s, 233° | - | - |
| 1778000945 | 26.67° C | 35% | 1001.6 hPa | 0 mm | 1.34 m/s, 199° | - | - |
| 1778000344 | 26.67° C | 35% | 1001.8 hPa | 0 mm | 0.89 m/s, 170° | - | - |
| 1777999745 | 26.67° C | 37% | 1001.9 hPa | 0 mm | 0.89 m/s, 212° | - | - |
| 1777999145 | 26.11° C | 38% | 1001.9 hPa | 0 mm | 0.89 m/s, 201° | - | - |
| 1777997944 | 26.11° C | 37% | 1002 hPa | 0 mm | 2.24 m/s, 225° | - | - |
| 1777997347 | 25.56° C | 38% | 1002.2 hPa | 0 mm | 1.34 m/s, 241° | - | - |
| 1777996744 | 25.56° C | 37% | 1002.4 hPa | 0 mm | 0.89 m/s, 220° | - | - |
| 1777996148 | 25° C | 39% | 1002.6 hPa | 0 mm | 1.79 m/s, 204° | - | - |
| 1777995546 | 25° C | 40% | 1002.5 hPa | 0 mm | 0.45 m/s, 210° | - | - |
| 1777994949 | 24.44° C | 41% | 1002.5 hPa | 0 mm | 0.45 m/s, 220° | - | - |
| 1777994345 | 24.44° C | 41% | 1002.5 hPa | 0 mm | 0.89 m/s, 217° | - | - |
| 1777993746 | 24.44° C | 41% | 1002.5 hPa | 0 mm | 0.45 m/s, 190° | - | - |
| 1777993145 | 24.44° C | 40% | 1002.6 hPa | 0 mm | 0.89 m/s, 191° | - | - |
| 1777992545 | 25° C | 39% | 1002.6 hPa | 0 mm | 0.89 m/s, 265° | - | - |
| 1777991945 | 23.89° C | 41% | 1002.6 hPa | 0 mm | 0.45 m/s, 180° | - | - |
* Rain latest hour (hover to see other rain measurements)
** Current wind speed in m/s (hover to see current wind gust speed)